Time;durP1;ratioP1;P1;durP2;ratioP2;P2;SDS_P1;SDS_P2;PMS_P1;PMS_P2;Temp;Humidity;BMP_temperature;BMP_pressure;BME280_temperature;BME280_humidity;BME280_pressure;Samples;Min_cycle;Max_cycle;Signal;HPM_P1;HPM_P2
2022/01/03 00:01:34;;;;;;;11.70;2.40;;;12.20;99.90;;;;;;5045178;28;20477;-48
2022/01/03 00:04:01;;;;;;;8.70;2.63;;;12.30;99.90;;;;;;5043389;28;20485;-49
2022/01/03 00:06:27;;;;;;;7.77;3.50;;;12.30;99.90;;;;;;5048763;28;20491;-49
2022/01/03 00:08:57;;;;;;;8.67;3.63;;;12.20;99.90;;;;;;5064363;28;20941;-47
2022/01/03 00:11:24;;;;;;;8.67;3.43;;;12.10;99.90;;;;;;5042921;28;20482;-50
2022/01/03 00:13:52;;;;;;;16.90;2.53;;;12.10;99.90;;;;;;5046764;28;20490;-48
2022/01/03 00:16:20;;;;;;;16.20;2.60;;;12.10;99.90;;;;;;5048247;28;21051;-48
2022/01/03 00:18:47;;;;;;;12.57;3.50;;;12.10;99.90;;;;;;5047308;28;21047;-48
2022/01/03 00:21:16;;;;;;;2.80;1.90;;;12.10;99.90;;;;;;5045792;28;20964;-47
2022/01/03 00:23:50;;;;;;;7.60;2.80;;;12.10;99.90;;;;;;5056298;28;20899;-47
2022/01/03 00:26:24;;;;;;;10.73;3.60;;;12.00;99.90;;;;;;5038786;28;21002;-47
2022/01/03 00:28:52;;;;;;;5.67;2.50;;;12.10;99.90;;;;;;5043371;28;20568;-50
2022/01/03 00:31:20;;;;;;;6.43;3.37;;;12.10;99.90;;;;;;5076800;27;20504;-48
2022/01/03 00:33:50;;;;;;;5.27;2.70;;;12.10;99.90;;;;;;5056971;28;20484;-48
2022/01/03 00:36:20;;;;;;;5.93;2.90;;;11.90;99.90;;;;;;5064463;28;20515;-48
2022/01/03 00:38:46;;;;;;;6.33;3.17;;;12.10;99.90;;;;;;5060560;28;20534;-48
2022/01/03 00:41:13;;;;;;;6.27;3.50;;;12.00;99.90;;;;;;5060067;28;20483;-48
2022/01/03 00:43:42;;;;;;;8.30;2.50;;;11.90;99.90;;;;;;5060837;28;20488;-48
2022/01/03 00:46:09;;;;;;;10.87;4.20;;;11.90;99.90;;;;;;5059927;28;20477;-49
2022/01/03 00:48:36;;;;;;;9.77;2.73;;;11.90;99.90;;;;;;5061190;28;20488;-47
2022/01/03 00:51:04;;;;;;;6.93;3.43;;;11.90;99.90;;;;;;5059457;28;20477;-48
2022/01/03 00:53:31;;;;;;;4.50;2.80;;;11.80;99.90;;;;;;5061293;28;20476;-48
2022/01/03 00:56:06;;;;;;;7.87;2.87;;;11.80;99.90;;;;;;5061079;28;21076;-47
2022/01/03 00:58:36;;;;;;;3.83;2.47;;;11.80;99.90;;;;;;5059994;28;20901;-48
2022/01/03 01:01:06;;;;;;;7.10;2.73;;;11.80;99.90;;;;;;5057238;28;20491;-47
2022/01/03 01:03:37;;;;;;;9.30;2.33;;;11.80;99.90;;;;;;5060699;28;20482;-48
2022/01/03 01:06:06;;;;;;;6.93;2.43;;;11.80;99.90;;;;;;5059864;28;21022;-47
2022/01/03 01:08:36;;;;;;;12.70;3.40;;;11.80;99.90;;;;;;5058146;28;20481;-48
2022/01/03 01:11:06;;;;;;;4.43;2.27;;;11.80;99.90;;;;;;5059553;28;20519;-48
2022/01/03 01:13:34;;;;;;;10.43;3.53;;;11.80;99.90;;;;;;5060557;28;20529;-47
2022/01/03 01:16:06;;;;;;;9.63;2.70;;;11.70;99.90;;;;;;5059595;28;21047;-49
2022/01/03 01:18:36;;;;;;;6.57;3.27;;;11.80;99.90;;;;;;5058955;28;21075;-48
2022/01/03 01:21:03;;;;;;;10.67;3.57;;;11.80;99.90;;;;;;5059062;28;20490;-48
2022/01/03 01:23:30;;;;;;;5.73;3.30;;;11.80;99.90;;;;;;5059372;28;20484;-47
2022/01/03 01:28:41;;;;;;;6.60;2.53;;;11.80;99.90;;;;;;5060810;28;20530;-47
2022/01/03 01:31:12;;;;;;;7.73;2.63;;;11.80;99.90;;;;;;5057537;28;20489;-47
2022/01/03 01:33:40;;;;;;;3.33;2.47;;;11.80;99.90;;;;;;5058053;28;20491;-49
2022/01/03 01:36:08;;;;;;;5.53;3.17;;;11.80;99.90;;;;;;5059907;28;20481;-48
2022/01/03 01:38:36;;;;;;;7.30;3.77;;;11.80;99.90;;;;;;5057799;28;20991;-48
2022/01/03 01:41:05;;;;;;;8.20;3.40;;;11.80;99.90;;;;;;5060392;28;20543;-47
2022/01/03 01:43:36;;;;;;;4.40;2.67;;;11.80;99.90;;;;;;5060641;28;20485;-48
2022/01/03 01:46:06;;;;;;;9.13;2.90;;;11.90;99.90;;;;;;5068028;28;20492;-48
2022/01/03 01:48:36;;;;;;;7.57;3.93;;;11.80;99.90;;;;;;5058198;28;20562;-48
2022/01/03 01:51:06;;;;;;;9.33;4.80;;;11.70;99.90;;;;;;5056942;28;20843;-49
2022/01/03 01:53:41;;;;;;;5.20;2.10;;;11.70;99.90;;;;;;5059725;28;21627;-48
2022/01/03 01:56:16;;;;;;;4.57;2.13;;;11.80;99.90;;;;;;5056639;28;20532;-48
2022/01/03 01:59:11;;;;;;;3.83;2.70;;;11.80;99.90;;;;;;5056155;28;20605;-48
2022/01/03 02:01:46;;;;;;;6.37;2.67;;;11.70;99.90;;;;;;5062973;28;21258;-48
2022/01/03 02:04:33;;;;;;;7.10;3.20;;;11.70;99.90;;;;;;5078353;28;20475;-47
2022/01/03 02:07:15;;;;;;;6.93;3.37;;;11.70;99.90;;;;;;5061887;28;20575;-48
2022/01/03 02:09:44;;;;;;;7.73;3.30;;;11.70;99.90;;;;;;5072346;28;20560;-48
2022/01/03 02:12:16;;;;;;;13.50;3.27;;;11.60;99.90;;;;;;5080193;28;20484;-48
2022/01/03 02:14:44;;;;;;;5.50;3.10;;;11.60;99.90;;;;;;5077076;28;20486;-47
2022/01/03 02:17:11;;;;;;;8.30;3.30;;;11.70;99.90;;;;;;5073266;28;20481;-48
2022/01/03 02:19:40;;;;;;;8.37;2.77;;;11.70;99.90;;;;;;5076166;28;20488;-48
2022/01/03 02:22:10;;;;;;;14.87;4.30;;;11.70;99.90;;;;;;5072215;28;20995;-48
2022/01/03 02:24:37;;;;;;;5.60;2.47;;;11.70;99.90;;;;;;5076537;28;20489;-48
2022/01/03 02:27:04;;;;;;;7.50;2.10;;;11.70;99.90;;;;;;5075411;28;20496;-48
2022/01/03 02:29:31;;;;;;;5.63;2.80;;;11.70;99.90;;;;;;5048250;28;20481;-47
2022/01/03 02:31:58;;;;;;;9.20;2.40;;;11.60;99.90;;;;;;5058229;28;20555;-48
2022/01/03 02:34:29;;;;;;;5.90;2.73;;;11.70;99.90;;;;;;5057541;28;21929;-47
2022/01/03 02:36:58;;;;;;;9.57;3.80;;;11.70;99.90;;;;;;5057188;28;20479;-48
2022/01/03 02:39:25;;;;;;;4.43;2.77;;;11.70;99.90;;;;;;5058745;28;20484;-48
2022/01/03 02:41:52;;;;;;;5.87;2.10;;;11.60;99.90;;;;;;5052251;28;20542;-48
2022/01/03 02:44:19;;;;;;;11.60;4.50;;;11.60;99.90;;;;;;5056723;28;20485;-48
2022/01/03 02:46:45;;;;;;;11.87;2.37;;;11.50;99.90;;;;;;5049292;28;20665;-47
2022/01/03 02:49:12;;;;;;;7.93;2.50;;;11.60;99.90;;;;;;5057882;28;20485;-49
2022/01/03 02:51:39;;;;;;;5.57;2.07;;;11.60;99.90;;;;;;5062101;28;20558;-49
2022/01/03 02:54:07;;;;;;;8.53;2.50;;;11.60;99.90;;;;;;5061618;28;20555;-48
2022/01/03 02:56:34;;;;;;;9.57;3.93;;;11.60;99.90;;;;;;5053932;28;20978;-49
2022/01/03 02:59:01;;;;;;;11.73;3.43;;;11.40;99.90;;;;;;5054527;28;20479;-48
2022/01/03 03:01:28;;;;;;;8.20;3.43;;;11.30;99.90;;;;;;5060495;28;21043;-48
2022/01/03 03:03:54;;;;;;;14.03;4.47;;;11.30;99.90;;;;;;5061025;28;20835;-49
2022/01/03 03:06:21;;;;;;;4.23;1.50;;;11.20;99.90;;;;;;5057550;28;21502;-48
2022/01/03 03:08:48;;;;;;;11.03;3.83;;;11.20;99.90;;;;;;5061115;28;20480;-49
2022/01/03 03:11:16;;;;;;;8.80;3.33;;;11.30;99.90;;;;;;5067677;28;21014;-48
2022/01/03 03:13:43;;;;;;;13.00;3.83;;;11.30;99.90;;;;;;5061632;28;20531;-48
2022/01/03 03:16:09;;;;;;;12.30;3.97;;;11.30;99.90;;;;;;5060475;28;20544;-49
2022/01/03 03:18:36;;;;;;;14.33;4.07;;;11.30;99.90;;;;;;5057621;28;20598;-49
2022/01/03 03:21:03;;;;;;;6.23;3.27;;;11.30;99.90;;;;;;5056957;28;20568;-49
2022/01/03 03:23:29;;;;;;;8.67;3.60;;;11.30;99.90;;;;;;5059551;28;20524;-49
2022/01/03 03:25:56;;;;;;;4.20;2.93;;;11.20;99.90;;;;;;5057824;28;20881;-49
2022/01/03 03:28:25;;;;;;;6.43;3.07;;;11.30;99.90;;;;;;5055170;28;20548;-48
2022/01/03 03:30:52;;;;;;;5.30;2.60;;;11.20;99.90;;;;;;5057740;28;20476;-48
2022/01/03 03:33:22;;;;;;;7.30;2.23;;;11.20;99.90;;;;;;5061446;28;21011;-49
2022/01/03 03:35:50;;;;;;;6.93;2.07;;;11.30;99.90;;;;;;5059844;28;20508;-48
2022/01/03 03:38:17;;;;;;;9.87;2.97;;;11.20;99.90;;;;;;5076467;27;20481;-48
2022/01/03 03:40:45;;;;;;;3.73;2.07;;;11.20;99.90;;;;;;5087506;27;20483;-48
2022/01/03 03:43:12;;;;;;;6.83;1.40;;;11.20;99.90;;;;;;5074629;28;20467;-48
2022/01/03 03:45:41;;;;;;;13.20;2.90;;;11.20;99.90;;;;;;5078430;28;20514;-48
2022/01/03 03:48:07;;;;;;;9.27;2.90;;;11.20;99.90;;;;;;5076361;28;20468;-48
2022/01/03 03:50:34;;;;;;;9.60;2.33;;;11.30;99.90;;;;;;5079061;27;20481;-48
2022/01/03 03:53:01;;;;;;;6.13;2.00;;;11.20;99.90;;;;;;5093635;27;20480;-48
2022/01/03 03:55:28;;;;;;;7.90;1.60;;;11.10;99.90;;;;;;5063618;28;20550;-55
2022/01/03 03:57:55;;;;;;;2.83;1.70;;;11.20;99.90;;;;;;5063288;28;20477;-48
2022/01/03 04:00:22;;;;;;;13.33;2.40;;;11.20;99.90;;;;;;5060120;28;20494;-47
2022/01/03 04:02:50;;;;;;;11.93;2.37;;;11.20;99.90;;;;;;5062646;28;20483;-47
2022/01/03 04:05:17;;;;;;;7.73;2.17;;;11.20;99.90;;;;;;5059423;28;20518;-49
2022/01/03 04:07:44;;;;;;;7.50;1.50;;;11.30;99.90;;;;;;5056391;28;20481;-48
2022/01/03 04:10:15;;;;;;;11.87;2.30;;;11.30;99.90;;;;;;5045708;28;20485;-49
2022/01/03 04:12:42;;;;;;;9.20;1.77;;;11.30;99.90;;;;;;5074609;28;20483;-48
2022/01/03 04:15:10;;;;;;;11.00;2.43;;;11.40;99.90;;;;;;5060768;28;20484;-48
2022/01/03 04:17:37;;;;;;;8.17;2.63;;;11.40;99.90;;;;;;5057177;28;20607;-47
2022/01/03 04:20:07;;;;;;;11.80;2.20;;;11.40;99.90;;;;;;5058759;28;20522;-48
2022/01/03 04:22:34;;;;;;;4.13;2.30;;;11.40;99.90;;;;;;5057920;28;20997;-48
2022/01/03 04:25:00;;;;;;;6.50;2.33;;;11.50;99.90;;;;;;5057542;28;20488;-48
2022/01/03 04:27:27;;;;;;;10.33;3.13;;;11.40;99.90;;;;;;5067180;27;20547;-47
2022/01/03 04:29:54;;;;;;;4.77;1.87;;;11.30;99.90;;;;;;5059187;28;20489;-48
2022/01/03 04:32:21;;;;;;;12.83;1.63;;;11.40;99.90;;;;;;5057725;28;20485;-48
2022/01/03 04:34:47;;;;;;;11.00;2.57;;;11.40;99.90;;;;;;5059069;28;20550;-48
2022/01/03 04:37:15;;;;;;;11.97;2.23;;;11.40;99.90;;;;;;5064296;28;20996;-47
2022/01/03 04:39:42;;;;;;;11.30;3.30;;;11.40;99.90;;;;;;5070583;28;20517;-48
2022/01/03 04:42:09;;;;;;;8.20;2.10;;;11.40;99.90;;;;;;5074662;28;20486;-48
2022/01/03 04:44:36;;;;;;;5.67;2.37;;;11.40;99.90;;;;;;5078860;28;20481;-48
2022/01/03 04:47:03;;;;;;;10.80;1.90;;;11.50;99.90;;;;;;5071395;28;20488;-48
2022/01/03 04:49:30;;;;;;;8.53;2.10;;;11.50;99.90;;;;;;5085203;27;20929;-49
2022/01/03 04:51:57;;;;;;;11.80;2.47;;;11.50;99.90;;;;;;5080059;28;20477;-48
2022/01/03 04:54:25;;;;;;;12.53;2.70;;;11.50;99.90;;;;;;5075018;28;20754;-48
2022/01/03 04:56:57;;;;;;;3.90;1.53;;;11.50;99.90;;;;;;5076736;28;20480;-48
2022/01/03 04:59:24;;;;;;;10.90;2.57;;;11.50;99.90;;;;;;5066862;28;20549;-47
2022/01/03 05:01:50;;;;;;;10.77;1.87;;;11.50;99.90;;;;;;5078485;28;20529;-48
2022/01/03 05:04:17;;;;;;;11.43;2.97;;;11.50;99.90;;;;;;5079053;28;20492;-47
2022/01/03 05:06:44;;;;;;;14.13;2.97;;;11.50;99.90;;;;;;5080762;28;20491;-48
2022/01/03 05:09:10;;;;;;;10.13;2.83;;;11.50;99.90;;;;;;5073457;28;20499;-47
2022/01/03 05:11:38;;;;;;;9.53;1.70;;;11.50;99.90;;;;;;5088476;28;20477;-47
2022/01/03 05:14:05;;;;;;;8.60;1.87;;;11.40;99.90;;;;;;5073235;28;20487;-47
2022/01/03 05:16:32;;;;;;;8.00;2.10;;;11.40;99.90;;;;;;5086518;28;20540;-48
2022/01/03 05:18:59;;;;;;;6.43;2.23;;;11.40;99.90;;;;;;5079971;28;20486;-48
2022/01/03 05:21:26;;;;;;;7.10;1.80;;;11.30;99.90;;;;;;5075625;28;20473;-47
2022/01/03 05:23:52;;;;;;;16.57;2.67;;;11.40;99.90;;;;;;5074812;28;20475;-47
2022/01/03 05:26:19;;;;;;;7.37;2.20;;;11.40;99.90;;;;;;5077166;28;21099;-47
2022/01/03 05:28:48;;;;;;;7.80;2.43;;;11.40;99.90;;;;;;5068774;28;20542;-48
2022/01/03 05:31:15;;;;;;;8.50;3.23;;;11.40;99.90;;;;;;5091698;28;20963;-47
2022/01/03 05:33:42;;;;;;;4.13;1.40;;;11.30;99.90;;;;;;5077005;28;20965;-48
2022/01/03 05:36:08;;;;;;;9.60;1.83;;;11.40;99.90;;;;;;5075434;28;20475;-49
2022/01/03 05:38:35;;;;;;;7.97;3.07;;;11.30;99.90;;;;;;5077913;28;21157;-47
2022/01/03 05:41:02;;;;;;;13.90;2.67;;;11.30;99.90;;;;;;5077792;28;20473;-48
2022/01/03 05:43:28;;;;;;;8.90;1.90;;;11.30;99.90;;;;;;5074556;28;20549;-47
2022/01/03 05:45:56;;;;;;;7.90;1.83;;;11.30;99.90;;;;;;5070170;28;20476;-48
2022/01/03 05:48:23;;;;;;;8.33;2.33;;;11.30;99.90;;;;;;5076604;28;21091;-48
2022/01/03 05:50:50;;;;;;;4.07;1.33;;;11.30;99.90;;;;;;5076407;28;20488;-47
2022/01/03 05:53:16;;;;;;;3.83;2.00;;;11.20;99.90;;;;;;5076752;28;20494;-48
2022/01/03 05:55:44;;;;;;;8.90;1.70;;;11.30;99.90;;;;;;5074238;28;20869;-51
2022/01/03 05:58:11;;;;;;;9.33;2.07;;;11.20;99.90;;;;;;5075234;28;21040;-47
2022/01/03 06:00:38;;;;;;;8.47;1.57;;;11.20;99.90;;;;;;5075931;28;20871;-49
2022/01/03 06:03:06;;;;;;;9.00;2.93;;;11.20;99.90;;;;;;5077334;28;20485;-48
2022/01/03 06:05:42;;;;;;;6.87;3.37;;;11.20;99.90;;;;;;5076424;28;20481;-48
2022/01/03 06:08:09;;;;;;;8.73;2.60;;;11.30;99.90;;;;;;5074831;28;21004;-48
2022/01/03 06:10:40;;;;;;;17.43;4.80;;;11.20;99.90;;;;;;5077604;28;21337;-48
2022/01/03 06:13:07;;;;;;;5.17;2.07;;;11.10;99.90;;;;;;5076612;28;20489;-48
2022/01/03 06:15:36;;;;;;;14.93;2.63;;;11.20;99.90;;;;;;5082444;28;21022;-48
2022/01/03 06:18:04;;;;;;;11.43;3.03;;;11.20;99.90;;;;;;5078272;28;20536;-48
2022/01/03 06:20:33;;;;;;;12.30;3.60;;;11.20;99.90;;;;;;5081545;28;20562;-48
2022/01/03 06:23:00;;;;;;;19.13;2.90;;;11.10;99.90;;;;;;5069766;28;20476;-48
2022/01/03 06:25:26;;;;;;;13.83;3.07;;;11.10;99.90;;;;;;5087571;28;20924;-48
2022/01/03 06:27:53;;;;;;;10.73;3.80;;;11.10;99.90;;;;;;5079221;28;20548;-48
2022/01/03 06:30:20;;;;;;;11.80;2.80;;;11.10;99.90;;;;;;5081752;28;20488;-48
2022/01/03 06:32:47;;;;;;;4.27;1.87;;;11.10;99.90;;;;;;5080852;28;20879;-49
2022/01/03 06:35:13;;;;;;;8.17;2.90;;;11.10;99.90;;;;;;5075949;28;20519;-48
2022/01/03 06:37:41;;;;;;;10.83;2.13;;;11.00;99.90;;;;;;5080309;28;20518;-48
2022/01/03 06:40:09;;;;;;;13.33;2.50;;;10.90;99.90;;;;;;5077799;28;20832;-49
2022/01/03 06:42:36;;;;;;;12.93;2.33;;;10.90;99.90;;;;;;5078303;28;20478;-49
2022/01/03 06:45:04;;;;;;;7.77;2.50;;;10.80;99.90;;;;;;5080348;28;20479;-48
2022/01/03 06:47:31;;;;;;;12.83;3.23;;;10.80;99.90;;;;;;5082245;28;20884;-48
2022/01/03 06:49:57;;;;;;;22.30;4.30;;;10.90;99.90;;;;;;5088278;27;20908;-47
2022/01/03 06:52:24;;;;;;;16.60;3.27;;;10.80;99.90;;;;;;5089440;27;20484;-48
2022/01/03 06:54:52;;;;;;;10.70;2.63;;;10.70;99.90;;;;;;5081103;27;20480;-49
2022/01/03 06:57:19;;;;;;;12.60;4.00;;;10.70;99.90;;;;;;5098762;27;20488;-48
2022/01/03 06:59:46;;;;;;;7.77;3.90;;;10.70;99.90;;;;;;5077935;28;20479;-49
2022/01/03 07:02:12;;;;;;;15.13;6.33;;;10.80;99.90;;;;;;5080802;28;20848;-48
2022/01/03 07:04:39;;;;;;;12.63;3.30;;;10.70;99.90;;;;;;5083260;28;20483;-49
2022/01/03 07:07:06;;;;;;;17.90;4.83;;;10.70;99.90;;;;;;5076647;28;20491;-48
2022/01/03 07:09:33;;;;;;;10.80;4.50;;;10.70;99.90;;;;;;5082165;28;20921;-48
2022/01/03 07:12:01;;;;;;;13.40;4.53;;;10.70;99.90;;;;;;5080394;28;20579;-48
2022/01/03 07:19:59;;;;;;;11.63;4.07;;;10.70;99.90;;;;;;5075830;28;20844;-48
2022/01/03 07:22:27;;;;;;;10.30;2.80;;;10.70;99.90;;;;;;5073118;28;21046;-48
2022/01/03 07:24:54;;;;;;;11.20;3.30;;;10.70;99.90;;;;;;5077369;28;20539;-49
2022/01/03 07:27:23;;;;;;;9.77;4.00;;;10.70;99.90;;;;;;5078104;28;20530;-48
2022/01/03 07:29:51;;;;;;;9.13;3.63;;;10.70;99.90;;;;;;5080374;28;20505;-48
2022/01/03 07:32:17;;;;;;;12.40;3.43;;;10.60;99.90;;;;;;5077469;28;20859;-47
2022/01/03 07:34:44;;;;;;;11.77;3.90;;;10.70;99.90;;;;;;5088298;28;20758;-51
2022/01/03 07:37:11;;;;;;;19.80;4.47;;;10.70;99.90;;;;;;5076198;28;21397;-48
2022/01/03 07:39:38;;;;;;;12.83;3.27;;;10.80;99.90;;;;;;5073662;28;21120;-47
2022/01/03 07:42:06;;;;;;;10.83;4.80;;;10.80;99.90;;;;;;5075292;28;21030;-47
2022/01/03 07:44:34;;;;;;;10.13;4.63;;;10.90;99.90;;;;;;5077911;28;20624;-47
2022/01/03 07:47:01;;;;;;;8.50;4.47;;;10.90;99.90;;;;;;5084123;28;20486;-47
2022/01/03 07:49:28;;;;;;;11.73;3.20;;;10.90;99.90;;;;;;5076092;28;20822;-47
2022/01/03 07:51:55;;;;;;;8.03;2.90;;;10.90;99.90;;;;;;5078018;28;20562;-48
2022/01/03 07:54:22;;;;;;;13.57;3.67;;;10.80;99.90;;;;;;5082896;28;20478;-47
2022/01/03 07:56:49;;;;;;;19.43;4.83;;;10.80;99.90;;;;;;5068588;28;20535;-48
2022/01/03 07:59:15;;;;;;;13.40;4.00;;;10.80;99.90;;;;;;5081917;28;20717;-47
2022/01/03 08:01:43;;;;;;;15.83;3.90;;;10.80;99.90;;;;;;5075252;28;20507;-48
2022/01/03 08:04:10;;;;;;;4.00;1.57;;;10.90;99.90;;;;;;5078438;28;20480;-48
2022/01/03 08:06:37;;;;;;;5.00;2.60;;;10.80;99.90;;;;;;5081788;28;20476;-48
2022/01/03 08:09:03;;;;;;;6.77;2.27;;;10.80;99.90;;;;;;5073905;28;21008;-48
2022/01/03 08:11:30;;;;;;;13.93;3.57;;;10.80;99.90;;;;;;5067313;28;20475;-48
2022/01/03 08:13:57;;;;;;;15.20;3.60;;;10.90;99.90;;;;;;5066133;28;20497;-48
2022/01/03 08:16:24;;;;;;;7.67;4.40;;;10.90;99.90;;;;;;5072023;28;20487;-47
2022/01/03 08:18:52;;;;;;;13.90;3.10;;;10.90;99.90;;;;;;5066182;28;20876;-48
2022/01/03 08:21:19;;;;;;;12.50;3.97;;;10.90;99.90;;;;;;5086448;28;20490;-49
2022/01/03 08:23:45;;;;;;;19.00;3.73;;;10.90;99.90;;;;;;5069109;28;20479;-48
2022/01/03 08:26:12;;;;;;;13.73;2.93;;;10.90;99.90;;;;;;5084606;28;20534;-48
2022/01/03 08:28:39;;;;;;;16.13;4.53;;;10.90;99.90;;;;;;5069379;28;20586;-48
2022/01/03 08:31:05;;;;;;;12.03;3.23;;;11.00;99.90;;;;;;5078027;28;20494;-48
2022/01/03 08:33:33;;;;;;;11.30;2.73;;;11.00;99.90;;;;;;5068999;28;21323;-47
2022/01/03 08:36:01;;;;;;;6.93;2.00;;;11.00;99.90;;;;;;5067542;28;20562;-47
2022/01/03 08:38:28;;;;;;;20.30;3.33;;;11.00;99.90;;;;;;5070202;28;20537;-51
2022/01/03 08:40:55;;;;;;;12.87;4.37;;;11.00;99.90;;;;;;5071774;28;20530;-47
2022/01/03 08:43:22;;;;;;;11.90;3.73;;;10.90;99.90;;;;;;5079485;28;20631;-49
2022/01/03 08:45:48;;;;;;;16.33;2.47;;;11.00;99.90;;;;;;5081291;28;20540;-48
2022/01/03 08:48:15;;;;;;;10.87;3.20;;;11.00;99.90;;;;;;5074451;28;20891;-47
2022/01/03 08:50:42;;;;;;;11.13;3.87;;;11.00;99.90;;;;;;5071427;28;21188;-48
2022/01/03 08:53:11;;;;;;;8.43;2.10;;;11.00;99.90;;;;;;5066952;28;20493;-48
2022/01/03 08:55:38;;;;;;;14.63;3.60;;;11.00;99.90;;;;;;5074639;28;21305;-48
2022/01/03 08:58:05;;;;;;;13.10;3.90;;;11.10;99.90;;;;;;5072401;28;20987;-47
2022/01/03 09:00:31;;;;;;;6.20;3.87;;;10.90;99.90;;;;;;5066982;28;20869;-48
2022/01/03 09:02:58;;;;;;;12.50;2.07;;;11.00;99.90;;;;;;5076568;28;20573;-48
2022/01/03 09:05:25;;;;;;;14.40;2.73;;;11.10;99.90;;;;;;5067075;28;20536;-47
2022/01/03 09:07:51;;;;;;;5.97;2.17;;;11.00;99.90;;;;;;5072217;28;21084;-48
2022/01/03 09:10:19;;;;;;;9.03;3.23;;;11.00;99.90;;;;;;5072183;28;20924;-48
2022/01/03 09:12:46;;;;;;;9.60;2.30;;;11.00;99.90;;;;;;5071996;28;20486;-47
2022/01/03 09:15:13;;;;;;;7.70;4.10;;;11.00;99.90;;;;;;5070048;28;20891;-47
2022/01/03 09:17:40;;;;;;;8.50;2.03;;;11.00;99.90;;;;;;5069836;28;20481;-47
2022/01/03 09:20:08;;;;;;;12.97;3.63;;;11.00;99.90;;;;;;5072501;28;20485;-48
2022/01/03 09:22:40;;;;;;;5.63;2.60;;;11.00;99.90;;;;;;5072797;28;20512;-48
2022/01/03 09:30:43;;;;;;;13.03;2.97;;;11.10;99.90;;;;;;5043154;28;20946;-48
2022/01/03 09:33:10;;;;;;;25.43;2.43;;;11.20;99.90;;;;;;5069620;28;20967;-47
2022/01/03 09:35:37;;;;;;;13.73;2.13;;;11.20;99.90;;;;;;5063509;28;20477;-47
2022/01/03 09:38:03;;;;;;;7.60;3.67;;;11.20;99.90;;;;;;5068345;28;20819;-48
2022/01/03 09:40:31;;;;;;;7.63;2.40;;;11.20;99.90;;;;;;5066223;28;20475;-47
2022/01/03 09:43:01;;;;;;;7.50;2.90;;;11.20;99.90;;;;;;5066505;28;20506;-47
2022/01/03 09:45:32;;;;;;;11.00;2.80;;;11.20;99.90;;;;;;5072487;28;21283;-47
2022/01/03 09:48:00;;;;;;;9.40;4.00;;;11.30;99.90;;;;;;5074387;28;20572;-48
2022/01/03 09:50:28;;;;;;;9.07;1.20;;;11.30;99.90;;;;;;5071514;28;20491;-48
2022/01/03 09:52:56;;;;;;;13.77;2.20;;;11.30;99.90;;;;;;5067628;28;20484;-48
2022/01/03 09:55:24;;;;;;;10.90;3.20;;;11.30;99.90;;;;;;5054972;28;20549;-48
2022/01/03 09:57:51;;;;;;;5.33;2.40;;;11.40;99.90;;;;;;5098820;28;20503;-51
2022/01/03 10:00:22;;;;;;;11.87;2.83;;;11.50;99.90;;;;;;5075419;28;20481;-48
2022/01/03 10:02:49;;;;;;;7.90;2.13;;;11.40;99.90;;;;;;5060774;28;20483;-48
2022/01/03 10:05:16;;;;;;;8.20;3.20;;;11.50;99.90;;;;;;5069797;28;20536;-47
2022/01/03 10:07:42;;;;;;;3.90;1.83;;;11.40;99.90;;;;;;5065919;28;20590;-48
2022/01/03 10:10:11;;;;;;;9.60;2.23;;;11.50;99.90;;;;;;5069260;28;20488;-47
2022/01/03 10:12:38;;;;;;;13.37;3.60;;;11.40;99.90;;;;;;5070028;28;20543;-48
2022/01/03 10:15:07;;;;;;;8.90;2.90;;;11.50;99.90;;;;;;5070164;28;20540;-49
2022/01/03 10:17:36;;;;;;;7.20;2.67;;;11.50;99.90;;;;;;5086750;28;20532;-48
2022/01/03 10:20:06;;;;;;;8.67;2.63;;;11.50;99.90;;;;;;5071225;28;20477;-50
2022/01/03 10:22:34;;;;;;;14.33;3.67;;;11.60;99.90;;;;;;5068042;28;21062;-48
2022/01/03 10:25:09;;;;;;;9.07;2.03;;;11.50;99.90;;;;;;5072522;28;20990;-49
2022/01/03 10:27:48;;;;;;;11.40;2.70;;;11.50;99.90;;;;;;5068787;28;21096;-48
2022/01/03 10:30:28;;;;;;;8.83;2.80;;;11.60;99.90;;;;;;5067037;28;20552;-48
2022/01/03 10:32:56;;;;;;;5.30;3.13;;;11.60;99.90;;;;;;5083477;28;20534;-48
2022/01/03 10:35:23;;;;;;;13.60;3.17;;;11.50;99.90;;;;;;5070065;28;20495;-49
2022/01/03 10:37:50;;;;;;;7.20;2.63;;;11.60;99.90;;;;;;5064054;28;20510;-49
2022/01/03 10:40:27;;;;;;;12.53;2.50;;;11.60;99.90;;;;;;5072893;28;20537;-48
2022/01/03 10:42:54;;;;;;;7.53;1.73;;;11.60;99.90;;;;;;5069608;28;20612;-47
2022/01/03 10:45:30;;;;;;;11.67;5.07;;;11.50;99.90;;;;;;5074266;28;20975;-48
2022/01/03 10:47:59;;;;;;;5.27;1.87;;;11.50;99.90;;;;;;5077717;28;21396;-48
2022/01/03 10:50:26;;;;;;;7.10;2.57;;;11.50;99.90;;;;;;5069530;28;20501;-49
2022/01/03 10:52:53;;;;;;;8.93;2.43;;;11.50;99.90;;;;;;5074243;28;20488;-47
2022/01/03 10:55:26;;;;;;;15.20;3.20;;;11.60;99.90;;;;;;5078394;28;20549;-48
2022/01/03 10:57:55;;;;;;;8.40;3.07;;;11.50;99.90;;;;;;5072140;28;20559;-47
2022/01/03 11:00:26;;;;;;;11.00;2.60;;;11.60;99.90;;;;;;5069572;28;20487;-49
2022/01/03 11:03:23;;;;;;;6.07;2.63;;;11.70;99.90;;;;;;5066426;28;20845;-48
2022/01/03 11:05:53;;;;;;;10.97;2.73;;;11.70;99.90;;;;;;5072311;28;20574;-47
2022/01/03 11:11:07;;;;;;;8.93;1.83;;;11.70;99.90;;;;;;5071383;28;20477;-48
2022/01/03 11:13:38;;;;;;;9.73;3.23;;;11.60;99.90;;;;;;5077788;28;20537;-48
2022/01/03 11:16:07;;;;;;;15.57;3.13;;;11.70;99.90;;;;;;5078078;28;20486;-48
2022/01/03 11:18:38;;;;;;;11.17;4.97;;;11.70;99.90;;;;;;5072060;28;20526;-49
2022/01/03 11:21:13;;;;;;;10.23;3.60;;;11.70;99.90;;;;;;5070750;28;20512;-48
2022/01/03 11:23:41;;;;;;;7.17;2.80;;;11.70;99.90;;;;;;5075878;28;20470;-48
2022/01/03 11:26:10;;;;;;;13.93;3.30;;;11.70;99.90;;;;;;5065605;28;20480;-48
2022/01/03 11:28:39;;;;;;;12.67;4.53;;;11.70;99.90;;;;;;5066837;28;20958;-48
2022/01/03 11:31:06;;;;;;;9.20;3.83;;;11.60;99.90;;;;;;5072136;28;20566;-48
2022/01/03 11:33:36;;;;;;;10.90;4.20;;;11.60;99.90;;;;;;5076132;28;21433;-48
2022/01/03 11:36:04;;;;;;;2.37;1.80;;;11.60;99.90;;;;;;5067483;28;20999;-47
2022/01/03 11:38:32;;;;;;;14.40;3.00;;;11.70;99.90;;;;;;5080286;28;20502;-47
2022/01/03 11:41:03;;;;;;;5.97;2.70;;;11.70;99.90;;;;;;5071429;28;20504;-48
2022/01/03 11:43:30;;;;;;;10.43;4.40;;;11.70;99.90;;;;;;5071723;28;20487;-48
2022/01/03 11:45:58;;;;;;;14.90;2.73;;;11.70;99.90;;;;;;5077781;28;20488;-47
2022/01/03 11:48:26;;;;;;;7.00;2.53;;;11.80;99.90;;;;;;5071515;28;20533;-48
2022/01/03 11:50:55;;;;;;;2.67;2.03;;;11.90;99.90;;;;;;5072721;28;20546;-47
2022/01/03 11:53:23;;;;;;;18.80;3.20;;;11.80;99.90;;;;;;5075968;28;20486;-48
2022/01/03 11:55:53;;;;;;;10.40;2.30;;;11.80;99.90;;;;;;5074901;28;20490;-49
2022/01/03 11:58:50;;;;;;;7.87;2.30;;;11.90;99.90;;;;;;5075398;28;20550;-48
2022/01/03 12:04:11;;;;;;;7.47;2.70;;;11.80;99.90;;;;;;5058052;28;20478;-47
2022/01/03 12:06:40;;;;;;;7.60;3.27;;;11.80;99.90;;;;;;5063495;28;20492;-48
2022/01/03 12:09:09;;;;;;;7.10;2.00;;;11.90;99.90;;;;;;5071723;28;20978;-51
2022/01/03 12:11:43;;;;;;;7.40;3.60;;;11.90;99.90;;;;;;5079812;28;20570;-47
2022/01/03 12:14:11;;;;;;;5.27;2.13;;;11.90;99.90;;;;;;5069156;28;20515;-50
2022/01/03 12:16:47;;;;;;;2.90;1.37;;;11.90;99.90;;;;;;5076742;28;20483;-48
2022/01/03 12:19:28;;;;;;;12.60;4.10;;;11.90;99.90;;;;;;5067238;28;20477;-47
2022/01/03 12:22:12;;;;;;;11.30;3.43;;;11.80;99.90;;;;;;5078009;28;20484;-47
2022/01/03 12:24:44;;;;;;;8.43;2.17;;;11.90;99.90;;;;;;5057224;27;20473;-48
2022/01/03 12:27:35;;;;;;;11.10;2.73;;;12.00;99.90;;;;;;5057747;27;20516;-47
2022/01/03 12:30:18;;;;;;;6.67;2.33;;;11.90;99.90;;;;;;5057676;28;21050;-47
2022/01/03 12:33:19;;;;;;;6.83;2.20;;;12.00;99.90;;;;;;5043079;28;20481;-48
2022/01/03 12:35:48;;;;;;;6.90;2.40;;;12.00;99.90;;;;;;5048847;28;20476;-49
2022/01/03 12:38:27;;;;;;;6.50;2.57;;;12.00;99.90;;;;;;5052280;28;20480;-48
2022/01/03 12:40:57;;;;;;;7.80;2.13;;;12.00;99.90;;;;;;5051620;28;20835;-48
2022/01/03 12:43:45;;;;;;;10.33;1.53;;;12.10;99.90;;;;;;5051981;28;20562;-49
2022/01/03 12:46:16;;;;;;;4.20;2.17;;;12.10;99.90;;;;;;5071191;28;21064;-47
2022/01/03 12:48:43;;;;;;;6.00;2.00;;;12.10;99.90;;;;;;5083278;28;20498;-48
2022/01/03 12:51:16;;;;;;;5.33;2.30;;;12.10;99.90;;;;;;5079850;28;21056;-48
2022/01/03 12:53:50;;;;;;;6.30;2.60;;;12.20;99.90;;;;;;5081273;28;20988;-48
2022/01/03 12:56:21;;;;;;;4.67;1.70;;;12.20;99.90;;;;;;5046980;28;20476;-48
2022/01/03 12:58:51;;;;;;;10.60;1.73;;;12.20;99.90;;;;;;5046941;27;20496;-49
2022/01/03 13:01:30;;;;;;;4.73;1.40;;;12.30;99.90;;;;;;5066546;27;20555;-48
2022/01/03 13:03:59;;;;;;;6.23;1.43;;;12.40;99.90;;;;;;5062633;28;20986;-49
2022/01/03 13:06:29;;;;;;;12.40;3.47;;;12.40;99.90;;;;;;5058172;28;20974;-48
2022/01/03 13:09:09;;;;;;;9.60;2.97;;;12.40;99.90;;;;;;5060553;28;21062;-52
2022/01/03 13:11:38;;;;;;;12.60;3.70;;;12.40;99.90;;;;;;5059487;28;21056;-47